createdAt,value
2022-11-03T00:02:07.386Z,101320.72
2022-11-03T00:04:33.867Z,101318.63
2022-11-03T00:07:00.696Z,101323.78
2022-11-03T00:09:27.702Z,101318.75
2022-11-03T00:11:54.733Z,101317.09
2022-11-03T00:14:21.356Z,101311.34
2022-11-03T00:16:47.977Z,101311.25
2022-11-03T00:19:16.871Z,101310.69
2022-11-03T00:21:43.920Z,101307.75
2022-11-03T00:24:11.124Z,101303.81
2022-11-03T00:26:38.707Z,101306.44
2022-11-03T00:29:12.717Z,101295.59
2022-11-03T00:31:41.006Z,101301.66
2022-11-03T00:34:07.898Z,101300.28
2022-11-03T00:36:42.910Z,101298.47
2022-11-03T00:39:10.384Z,101290.63
2022-11-03T00:41:37.440Z,101288.72
2022-11-03T00:44:04.069Z,101290.03
2022-11-03T00:46:34.988Z,101282.63
2022-11-03T00:49:04.425Z,101287.63
2022-11-03T00:51:31.574Z,101281.06
2022-11-03T00:54:00.193Z,101272.94
2022-11-03T00:56:28.524Z,101274.09
2022-11-03T00:58:56.950Z,101274.66
2022-11-03T01:01:26.723Z,101274.66
2022-11-03T01:04:14.367Z,101273.69
2022-11-03T01:06:50.868Z,101264.84
2022-11-03T01:09:45.150Z,101256.72
2022-11-03T01:12:17.570Z,101250.66
2022-11-03T01:14:52.632Z,101258.63
2022-11-03T01:17:25.656Z,101251.53
2022-11-03T01:19:53.014Z,101249.47
2022-11-03T01:22:20.932Z,101244.91
2022-11-03T01:24:47.604Z,101244.50
2022-11-03T01:27:17.721Z,101243.31
2022-11-03T01:29:44.334Z,101238.84
2022-11-03T01:32:11.632Z,101231.03
2022-11-03T01:34:38.370Z,101221.66
2022-11-03T01:37:05.499Z,101208.44
2022-11-03T01:39:32.007Z,101210.75
2022-11-03T01:41:58.982Z,101218.13
2022-11-03T01:44:28.539Z,101197.25
2022-11-03T01:47:23.447Z,101202.28
2022-11-03T01:49:55.864Z,101199.88
2022-11-03T01:52:33.896Z,101196.75
2022-11-03T01:55:40.004Z,101184.13
2022-11-03T01:58:11.941Z,101174.75
2022-11-03T02:00:41.324Z,101177.53
2022-11-03T02:03:08.372Z,101176.53
2022-11-03T02:05:36.206Z,101177.41
2022-11-03T02:08:10.843Z,101179.84
2022-11-03T02:10:38.207Z,101175.84
2022-11-03T02:13:12.552Z,101176.44
2022-11-03T02:15:39.827Z,101172.94
2022-11-03T02:18:07.963Z,101168.13
2022-11-03T02:20:34.861Z,101170.28
2022-11-03T02:23:10.223Z,101166.47
2022-11-03T02:25:42.902Z,101158.63
2022-11-03T02:28:10.949Z,101162.69
2022-11-03T02:30:51.294Z,101166.56
2022-11-03T02:33:31.764Z,101155.19
2022-11-03T02:36:17.884Z,101152.41
2022-11-03T02:38:58.110Z,101142.72
2022-11-03T02:41:26.096Z,101142.50
2022-11-03T02:43:55.101Z,101134.44
2022-11-03T02:46:25.913Z,101133.28
2022-11-03T02:48:52.953Z,101135.25
2022-11-03T02:51:19.631Z,101129.09
2022-11-03T02:54:03.129Z,101123.75
2022-11-03T02:56:34.991Z,101124.13
2022-11-03T02:59:06.972Z,101114.44
2022-11-03T03:01:46.783Z,101121.81
2022-11-03T03:04:22.383Z,101124.53
2022-11-03T03:07:02.665Z,101121.19
2022-11-03T03:09:36.024Z,101117.69
2022-11-03T03:12:04.886Z,101117.16
2022-11-03T03:14:37.624Z,101111.50
2022-11-03T03:17:30.975Z,101102.78
2022-11-03T03:20:17.775Z,101092.22
2022-11-03T03:22:57.145Z,101090.81
2022-11-03T03:25:29.518Z,101086.44
2022-11-03T03:28:13.538Z,101090.22
2022-11-03T03:30:43.853Z,101078.56
2022-11-03T03:33:11.227Z,101082.88
2022-11-03T03:35:40.181Z,101083.38
2022-11-03T03:38:13.901Z,101079.84
2022-11-03T03:40:42.993Z,101081.16
2022-11-03T03:43:14.151Z,101079.75
2022-11-03T03:45:43.063Z,101076.22
2022-11-03T03:48:09.766Z,101079.22
2022-11-03T03:50:38.636Z,101061.03
2022-11-03T03:53:09.441Z,101062.34
2022-11-03T03:55:42.034Z,101056.09
2022-11-03T03:58:11.917Z,101055.81
2022-11-03T04:00:40.159Z,101048.78
2022-11-03T04:03:13.611Z,101044.69
2022-11-03T04:05:40.055Z,101044.16
2022-11-03T04:08:06.693Z,101043.31
2022-11-03T04:10:33.557Z,101039.25
2022-11-03T04:13:18.872Z,101028.91
2022-11-03T04:15:57.278Z,101032.13
2022-11-03T04:18:42.559Z,101031.81
2022-11-03T04:21:31.715Z,101032.66
2022-11-03T04:24:00.358Z,101024.63
2022-11-03T04:26:28.155Z,101021.56
2022-11-03T04:28:56.205Z,101020.47
2022-11-03T04:31:22.902Z,101013.44
2022-11-03T04:33:49.487Z,101014.78
2022-11-03T04:36:22.000Z,101012.88
2022-11-03T04:38:49.954Z,101012.59
2022-11-03T04:41:38.787Z,101007.53
2022-11-03T04:44:10.621Z,100996.13
2022-11-03T04:46:37.104Z,100988.22
2022-11-03T04:49:05.666Z,100993.38
2022-11-03T04:51:34.887Z,100989.84
2022-11-03T04:54:15.918Z,100985.25
2022-11-03T04:56:42.499Z,100973.88
2022-11-03T04:59:12.805Z,100975.28
2022-11-03T05:01:39.908Z,100980.78
2022-11-03T05:04:13.724Z,100978.38
2022-11-03T05:06:40.783Z,100974.88
2022-11-03T05:09:17.929Z,100974.94
2022-11-03T05:11:46.478Z,100974.06
2022-11-03T05:14:25.812Z,100976.56
2022-11-03T05:16:54.496Z,100972.84
2022-11-03T05:19:27.159Z,100962.03
2022-11-03T05:21:58.181Z,100964.19
2022-11-03T05:24:26.136Z,100953.91
2022-11-03T05:26:54.916Z,100957.41
2022-11-03T05:29:23.843Z,100959.63
2022-11-03T05:31:53.772Z,100951.72
2022-11-03T05:34:34.976Z,100954.69
2022-11-03T05:37:26.819Z,100951.44
2022-11-03T05:39:57.051Z,100947.63
2022-11-03T05:42:23.523Z,100951.44
2022-11-03T05:44:51.660Z,100944.66
2022-11-03T05:47:25.099Z,100950.09
2022-11-03T05:49:56.113Z,100940.28
2022-11-03T05:52:25.731Z,100938.09
2022-11-03T05:54:59.285Z,100941.34
2022-11-03T05:57:29.424Z,100937.53
2022-11-03T05:59:57.345Z,100933.78
2022-11-03T06:02:38.679Z,100928.84
2022-11-03T06:05:20.359Z,100935.31
2022-11-03T06:07:48.251Z,100935.31
2022-11-03T06:10:24.023Z,100939.59
2022-11-03T06:12:50.682Z,100935.53
2022-11-03T06:15:28.607Z,100932.78
2022-11-03T06:17:56.109Z,100939.25
2022-11-03T06:20:23.264Z,100937.06
2022-11-03T06:22:52.632Z,100936.81
2022-11-03T06:25:27.056Z,100932.47
2022-11-03T06:27:58.028Z,100927.59
2022-11-03T06:30:28.116Z,100926.22
2022-11-03T06:33:07.388Z,100923.25
2022-11-03T06:35:34.971Z,100918.13
2022-11-03T06:38:02.264Z,100926.81
2022-11-03T06:40:37.104Z,100922.19
2022-11-03T06:43:16.514Z,100919.81
2022-11-03T06:45:52.527Z,100919.25
2022-11-03T06:48:25.037Z,100919.78
2022-11-03T06:50:52.727Z,100920.06
2022-11-03T06:53:25.337Z,100917.88
2022-11-03T06:55:52.051Z,100917.34
2022-11-03T06:58:30.674Z,100912.81
2022-11-03T07:01:03.633Z,100911.72
2022-11-03T07:03:37.543Z,100911.41
2022-11-03T07:06:10.102Z,100913.34
2022-11-03T07:08:43.609Z,100903.03
2022-11-03T07:11:22.822Z,100896.31
2022-11-03T07:13:56.110Z,100899.25
2022-11-03T07:16:27.850Z,100893.56
2022-11-03T07:18:56.390Z,100893.31
2022-11-03T07:21:26.179Z,100884.59
2022-11-03T07:23:52.974Z,100890.03
2022-11-03T07:26:19.515Z,100885.44
2022-11-03T07:28:48.404Z,100881.94
2022-11-03T07:31:25.374Z,100873.22
2022-11-03T07:34:01.335Z,100880.88
2022-11-03T07:36:31.828Z,100877.88
2022-11-03T07:39:00.467Z,100873.25
2022-11-03T07:41:34.223Z,100872.72
2022-11-03T07:44:02.486Z,100871.94
2022-11-03T07:46:29.388Z,100870.88
2022-11-03T07:49:02.221Z,100864.66
2022-11-03T07:51:41.003Z,100863.00
2022-11-03T07:54:19.444Z,100856.78
2022-11-03T07:56:50.762Z,100861.13
2022-11-03T07:59:21.804Z,100855.41
2022-11-03T08:01:54.136Z,100851.34
2022-11-03T08:04:25.782Z,100845.66
2022-11-03T08:06:52.755Z,100833.19
2022-11-03T08:09:19.719Z,100842.97
2022-11-03T08:11:46.333Z,100843.47
2022-11-03T08:14:13.539Z,100822.88
2022-11-03T08:16:40.353Z,100831.28
2022-11-03T08:19:07.072Z,100827.22
2022-11-03T08:21:33.738Z,100826.97
2022-11-03T08:24:00.514Z,100819.88
2022-11-03T08:26:28.098Z,100810.06
2022-11-03T08:28:54.803Z,100809.53
2022-11-03T08:31:21.444Z,100800.28
2022-11-03T08:33:48.032Z,100797.03
2022-11-03T08:36:14.651Z,100786.41
2022-11-03T08:38:41.353Z,100780.16
2022-11-03T08:41:07.926Z,100795.34
2022-11-03T08:43:34.477Z,100780.41
2022-11-03T08:46:09.765Z,100792.59
2022-11-03T08:48:42.333Z,100785.28
2022-11-03T08:51:10.274Z,100780.91
2022-11-03T08:53:38.452Z,100771.91
2022-11-03T08:56:10.284Z,100770.25
2022-11-03T08:58:39.195Z,100771.31
2022-11-03T09:01:05.858Z,100769.66
2022-11-03T09:03:32.361Z,100765.25
2022-11-03T09:05:59.252Z,100760.25
2022-11-03T09:11:12.922Z,100752.91
2022-11-03T09:13:39.510Z,100745.00
2022-11-03T09:16:06.510Z,100750.16
2022-11-03T09:18:34.097Z,100743.38
2022-11-03T09:21:00.765Z,100738.13
2022-11-03T09:23:27.815Z,100732.13
2022-11-03T09:25:55.693Z,100715.75
2022-11-03T09:28:23.071Z,100706.19
2022-11-03T09:30:49.594Z,100703.97
2022-11-03T09:33:16.122Z,100714.91
2022-11-03T09:35:42.597Z,100707.25
2022-11-03T09:38:09.119Z,100688.63
2022-11-03T09:40:36.229Z,100681.25
2022-11-03T09:43:03.395Z,100688.66
2022-11-03T09:45:30.201Z,100694.81
2022-11-03T09:47:57.688Z,100698.09
2022-11-03T09:50:25.097Z,100704.09
2022-11-03T09:52:54.439Z,100703.28
2022-11-03T09:55:26.280Z,100696.19
2022-11-03T09:58:00.698Z,100701.66
2022-11-03T10:00:27.930Z,100704.94
2022-11-03T10:02:56.112Z,100701.41
2022-11-03T10:05:27.791Z,100695.59
2022-11-03T10:08:00.717Z,100693.50
2022-11-03T10:10:27.964Z,100694.28
2022-11-03T10:12:55.336Z,100695.25
2022-11-03T10:15:23.751Z,100683.00
2022-11-03T10:17:51.245Z,100682.66
2022-11-03T10:20:21.077Z,100685.69
2022-11-03T10:22:52.588Z,100675.50
2022-11-03T10:25:40.079Z,100668.16
2022-11-03T10:28:27.205Z,100671.91
2022-11-03T10:31:11.635Z,100677.72
2022-11-03T10:34:00.840Z,100670.56
2022-11-03T10:36:30.405Z,100663.34
2022-11-03T10:38:58.337Z,100649.34
2022-11-03T10:41:27.893Z,100654.25
2022-11-03T10:44:12.618Z,100649.88
2022-11-03T10:46:56.038Z,100651.91
2022-11-03T10:49:23.241Z,100638.09
2022-11-03T10:51:59.386Z,100640.13
2022-11-03T10:54:26.391Z,100632.75
2022-11-03T10:56:53.107Z,100630.00
2022-11-03T10:59:22.394Z,100627.44
2022-11-03T11:01:49.159Z,100629.50
2022-11-03T11:04:20.510Z,100621.03
2022-11-03T11:06:47.934Z,100617.13
2022-11-03T11:09:21.232Z,100619.56
2022-11-03T11:12:05.592Z,100610.47
2022-11-03T11:14:39.116Z,100600.69
2022-11-03T11:17:06.370Z,100601.13
2022-11-03T11:20:13.174Z,100603.94
2022-11-03T11:22:39.729Z,100586.38
2022-11-03T11:25:06.632Z,100568.00
2022-11-03T11:27:35.816Z,100572.66
2022-11-03T11:30:30.636Z,100561.56
2022-11-03T11:33:15.136Z,100560.00
2022-11-03T11:35:41.571Z,100553.38
2022-11-03T11:38:55.496Z,100540.03
2022-11-03T11:42:02.269Z,100541.88
2022-11-03T11:44:45.695Z,100540.06
2022-11-03T11:47:46.163Z,100530.06
2022-11-03T11:50:21.518Z,100530.34
2022-11-03T11:52:59.357Z,100523.47
2022-11-03T11:55:34.831Z,100515.47
2022-11-03T11:58:03.985Z,100509.66
2022-11-03T12:00:33.315Z,100506.50
2022-11-03T12:03:02.366Z,100499.94
2022-11-03T12:05:32.792Z,100498.00
2022-11-03T12:08:00.573Z,100481.34
2022-11-03T12:10:30.079Z,100480.16
2022-11-03T12:12:59.525Z,100477.50
2022-11-03T12:15:56.547Z,100464.91
2022-11-03T12:18:39.189Z,100461.34
2022-11-03T12:21:09.655Z,100458.63
2022-11-03T12:23:47.298Z,100468.03
2022-11-03T12:26:29.382Z,100464.09
2022-11-03T12:28:56.203Z,100464.56
2022-11-03T12:31:22.716Z,100462.41
2022-11-03T12:33:49.220Z,100453.63
2022-11-03T12:36:15.735Z,100453.09
2022-11-03T12:38:42.433Z,100450.00
2022-11-03T12:41:27.000Z,100432.00
2022-11-03T12:43:54.407Z,100438.72
2022-11-03T12:46:22.192Z,100427.78
2022-11-03T12:48:49.291Z,100429.78
2022-11-03T12:51:18.120Z,100421.81
2022-11-03T12:53:45.236Z,100409.91
2022-11-03T12:56:12.725Z,100398.19
2022-11-03T12:58:39.544Z,100392.81
2022-11-03T13:01:07.508Z,100371.66
2022-11-03T13:03:35.842Z,100375.25
2022-11-03T13:06:04.645Z,100371.28
2022-11-03T13:08:31.868Z,100376.16
2022-11-03T13:10:58.879Z,100377.09
2022-11-03T13:13:27.105Z,100376.44
2022-11-03T13:15:54.006Z,100377.09
2022-11-03T13:18:22.507Z,100368.25
2022-11-03T13:20:49.226Z,100369.97
2022-11-03T13:23:18.758Z,100353.16
2022-11-03T13:25:48.827Z,100343.13
2022-11-03T13:28:15.438Z,100338.09
2022-11-03T13:30:41.952Z,100334.53
2022-11-03T13:33:09.194Z,100333.13
2022-11-03T13:35:36.038Z,100330.41
2022-11-03T13:38:02.596Z,100321.72
2022-11-03T13:40:54.973Z,100318.06
2022-11-03T13:43:15.847Z,100309.59
2022-11-03T13:45:42.339Z,100305.31
2022-11-03T13:50:57.589Z,100298.47
2022-11-03T13:56:16.914Z,100301.88
2022-11-03T14:01:35.745Z,100274.59
2022-11-03T14:06:49.093Z,100256.00
2022-11-03T14:09:15.595Z,100254.69
2022-11-03T14:12:00.885Z,100257.94
2022-11-03T14:14:27.824Z,100242.38
2022-11-03T14:16:54.834Z,100241.47
2022-11-03T14:19:21.829Z,100240.66
2022-11-03T14:21:48.373Z,100237.00
2022-11-03T14:24:14.954Z,100242.88
2022-11-03T14:26:43.088Z,100233.88
2022-11-03T14:29:10.472Z,100223.56
2022-11-03T14:31:37.171Z,100210.44
2022-11-03T14:34:03.696Z,100200.84
2022-11-03T14:36:30.168Z,100212.66
2022-11-03T14:38:58.596Z,100196.59
2022-11-03T14:41:44.115Z,100191.16
2022-11-03T14:44:10.601Z,100190.44
2022-11-03T14:46:37.184Z,100186.19
2022-11-03T14:49:03.701Z,100182.25
2022-11-03T14:51:30.844Z,100169.94
2022-11-03T14:53:58.469Z,100161.94
2022-11-03T14:56:25.837Z,100160.63
2022-11-03T14:58:52.364Z,100167.00
2022-11-03T15:01:19.948Z,100157.78
2022-11-03T15:03:46.763Z,100139.22
2022-11-03T15:06:13.296Z,100131.97
2022-11-03T15:08:39.910Z,100127.22
2022-11-03T15:11:10.488Z,100120.72
2022-11-03T15:13:41.721Z,100118.44
2022-11-03T15:16:12.549Z,100106.59
2022-11-03T15:18:39.009Z,100105.06
2022-11-03T15:21:05.772Z,100098.53
2022-11-03T15:26:18.761Z,100091.25
2022-11-03T15:28:45.228Z,100092.47
2022-11-03T15:31:11.683Z,100096.00
2022-11-03T15:33:38.211Z,100092.78
2022-11-03T15:36:06.972Z,100096.78
2022-11-03T15:38:33.755Z,100090.66
2022-11-03T15:41:15.573Z,100083.47
2022-11-03T15:43:47.141Z,100074.28
2022-11-03T15:46:15.250Z,100062.81
2022-11-03T15:48:42.836Z,100062.97
2022-11-03T15:51:10.065Z,100052.19
2022-11-03T15:53:36.769Z,100048.06
2022-11-03T15:56:03.799Z,100046.94
2022-11-03T15:58:33.948Z,100037.97
2022-11-03T16:01:02.310Z,100035.03
2022-11-03T16:03:29.669Z,100044.13
2022-11-03T16:05:56.488Z,100024.03
2022-11-03T16:08:22.973Z,100027.28
2022-11-03T16:10:53.304Z,100037.56
2022-11-03T16:13:24.782Z,100042.19
2022-11-03T16:15:51.713Z,100036.13
2022-11-03T16:18:18.291Z,100017.88
2022-11-03T16:20:44.826Z,100012.03
2022-11-03T16:23:12.063Z,100008.41
2022-11-03T16:25:38.661Z,100013.03
2022-11-03T16:28:05.606Z,99991.72
2022-11-03T16:30:33.496Z,99978.50
2022-11-03T16:33:00.053Z,99962.16
2022-11-03T16:35:29.327Z,99963.06
2022-11-03T16:37:56.175Z,99952.16
2022-11-03T16:40:22.703Z,99964.88
2022-11-03T16:42:49.126Z,99955.31
2022-11-03T16:45:18.646Z,99966.19
2022-11-03T16:47:46.818Z,99949.25
2022-11-03T16:50:14.766Z,99938.06
2022-11-03T16:52:41.218Z,99943.63
2022-11-03T16:55:10.317Z,99942.19
2022-11-03T16:57:36.805Z,99930.69
2022-11-03T17:00:05.187Z,99929.69
2022-11-03T17:02:31.916Z,99918.66
2022-11-03T17:04:58.493Z,99921.63
2022-11-03T17:07:25.411Z,99920.19
2022-11-03T17:09:52.470Z,99912.53
2022-11-03T17:12:19.065Z,99901.00
2022-11-03T17:14:45.805Z,99899.59
2022-11-03T17:17:12.573Z,99893.94
2022-11-03T17:19:39.276Z,99898.41
2022-11-03T17:22:05.785Z,99895.38
2022-11-03T17:24:32.369Z,99892.13
2022-11-03T17:27:00.667Z,99898.09
2022-11-03T17:29:41.742Z,99896.19
2022-11-03T17:32:13.572Z,99893.16
2022-11-03T17:34:40.147Z,99890.44
2022-11-03T17:37:06.897Z,99886.72
2022-11-03T17:39:34.399Z,99887.91
2022-11-03T17:42:13.549Z,99884.06
2022-11-03T17:44:40.123Z,99885.78
2022-11-03T17:47:06.647Z,99877.78
2022-11-03T17:49:33.497Z,99873.59
2022-11-03T17:52:00.007Z,99873.97
2022-11-03T17:54:32.007Z,99872.34
2022-11-03T17:57:00.733Z,99873.47
2022-11-03T17:59:27.948Z,99869.25
2022-11-03T18:01:55.678Z,99866.91
2022-11-03T18:04:22.927Z,99857.41
2022-11-03T18:06:49.414Z,99847.94
2022-11-03T18:09:16.261Z,99848.06
2022-11-03T18:12:02.130Z,99850.16
2022-11-03T18:14:29.640Z,99840.47
2022-11-03T18:16:57.142Z,99825.72
2022-11-03T18:19:23.649Z,99826.88
2022-11-03T18:21:50.171Z,99823.22
2022-11-03T18:24:19.585Z,99824.63
2022-11-03T18:26:46.061Z,99827.94
2022-11-03T18:29:12.554Z,99827.66
2022-11-03T18:31:42.884Z,99824.25
2022-11-03T18:34:17.022Z,99831.09
2022-11-03T18:36:44.279Z,99826.75
2022-11-03T18:39:16.790Z,99826.47
2022-11-03T18:41:44.600Z,99834.44
2022-11-03T18:44:25.505Z,99831.00
2022-11-03T18:46:52.681Z,99830.06
2022-11-03T18:49:19.781Z,99835.56
2022-11-03T18:52:02.841Z,99822.22
2022-11-03T18:54:31.504Z,99822.69
2022-11-03T18:56:58.535Z,99828.69
2022-11-03T18:59:32.152Z,99828.69
2022-11-03T19:01:59.590Z,99823.84
2022-11-03T19:04:26.986Z,99816.28
2022-11-03T19:06:53.846Z,99814.50
2022-11-03T19:09:26.076Z,99802.91
2022-11-03T19:11:56.265Z,99802.19
2022-11-03T19:14:26.257Z,99798.97
2022-11-03T19:19:39.926Z,99779.72
2022-11-03T19:22:15.364Z,99777.97
2022-11-03T19:24:45.330Z,99769.41
2022-11-03T19:27:25.862Z,99763.97
2022-11-03T19:29:53.324Z,99755.19
2022-11-03T19:32:24.505Z,99759.31
2022-11-03T19:34:56.357Z,99754.22
2022-11-03T19:37:22.920Z,99748.00
2022-11-03T19:39:49.552Z,99743.44
2022-11-03T19:42:31.092Z,99737.59
2022-11-03T19:44:59.490Z,99739.72
2022-11-03T19:47:31.704Z,99715.00
2022-11-03T19:50:02.458Z,99711.91
2022-11-03T19:52:30.559Z,99702.00
2022-11-03T19:54:58.432Z,99700.03
2022-11-03T19:57:25.024Z,99707.69
2022-11-03T19:59:51.497Z,99701.38
2022-11-03T20:02:18.082Z,99700.84
2022-11-03T20:04:47.163Z,99692.19
2022-11-03T20:07:15.577Z,99691.00
2022-11-03T20:09:42.765Z,99690.28
2022-11-03T20:12:12.129Z,99685.38
2022-11-03T20:14:38.589Z,99685.38
2022-11-03T20:17:17.667Z,99687.00
2022-11-03T20:19:44.252Z,99685.47
2022-11-03T20:22:16.175Z,99683.19
2022-11-03T20:24:45.012Z,99679.63
2022-11-03T20:27:12.196Z,99682.03
2022-11-03T20:29:39.598Z,99679.75
2022-11-03T20:32:06.449Z,99675.09
2022-11-03T20:34:33.093Z,99676.53
2022-11-03T20:37:04.443Z,99680.06
2022-11-03T20:39:32.770Z,99682.16
2022-11-03T20:41:59.756Z,99674.78
2022-11-03T20:44:26.222Z,99677.22
2022-11-03T20:46:52.705Z,99682.53
2022-11-03T20:49:19.160Z,99674.44
2022-11-03T20:51:47.154Z,99675.25
2022-11-03T20:54:17.493Z,99677.09
2022-11-03T20:56:44.157Z,99671.47
2022-11-03T20:59:13.508Z,99661.13
2022-11-03T21:01:41.291Z,99666.41
2022-11-03T21:04:14.098Z,99661.88
2022-11-03T21:06:40.789Z,99647.66
2022-11-03T21:09:11.909Z,99652.13
2022-11-03T21:11:40.461Z,99649.94
2022-11-03T21:14:12.916Z,99652.97
2022-11-03T21:16:58.139Z,99670.41
2022-11-03T21:19:45.770Z,99668.00
2022-11-03T21:22:30.767Z,99688.50
2022-11-03T21:25:01.020Z,99693.00
2022-11-03T21:27:28.038Z,99694.38
2022-11-03T21:29:59.418Z,99691.06
2022-11-03T21:32:28.033Z,99690.56
2022-11-03T21:34:54.754Z,99688.97
2022-11-03T21:37:21.365Z,99688.81
2022-11-03T21:39:47.804Z,99687.63
2022-11-03T21:42:34.409Z,99686.94
2022-11-03T21:45:02.400Z,99696.81
2022-11-03T21:47:28.997Z,99684.97
2022-11-03T21:49:55.822Z,99677.03
2022-11-03T21:52:32.941Z,99679.56
2022-11-03T21:55:02.416Z,99687.66
2022-11-03T21:57:29.683Z,99692.63
2022-11-03T21:59:59.624Z,99687.28
2022-11-03T22:02:28.092Z,99677.31
2022-11-03T22:04:55.873Z,99672.47
2022-11-03T22:07:23.013Z,99674.69
2022-11-03T22:09:49.569Z,99666.22
2022-11-03T22:12:16.149Z,99665.53
2022-11-03T22:15:01.069Z,99667.34
2022-11-03T22:17:27.901Z,99658.38
2022-11-03T22:20:12.971Z,99652.22
2022-11-03T22:22:58.388Z,99654.16
2022-11-03T22:25:43.801Z,99642.28
2022-11-03T22:28:14.646Z,99640.97
2022-11-03T22:31:00.594Z,99622.72
2022-11-03T22:33:27.875Z,99620.63
2022-11-03T22:36:21.446Z,99596.97
2022-11-03T22:39:06.959Z,99583.66
2022-11-03T22:41:52.347Z,99579.22
2022-11-03T22:44:37.507Z,99576.06
2022-11-03T22:47:06.784Z,99564.50
2022-11-03T22:49:34.920Z,99555.56
2022-11-03T22:52:02.440Z,99552.00
2022-11-03T22:54:28.877Z,99532.44
2022-11-03T22:56:56.306Z,99546.44
2022-11-03T22:59:22.992Z,99553.94
2022-11-03T23:01:49.669Z,99552.31
2022-11-03T23:04:16.249Z,99552.66
2022-11-03T23:06:42.892Z,99559.50
2022-11-03T23:09:12.686Z,99558.56
2022-11-03T23:11:41.512Z,99565.91
2022-11-03T23:14:10.952Z,99568.75
2022-11-03T23:16:40.325Z,99560.69
2022-11-03T23:19:28.197Z,99563.53
2022-11-03T23:21:55.738Z,99567.03
2022-11-03T23:24:45.092Z,99571.34
2022-11-03T23:27:12.946Z,99572.19
2022-11-03T23:29:39.441Z,99562.59
2022-11-03T23:32:06.735Z,99561.28
2022-11-03T23:34:35.048Z,99566.72
2022-11-03T23:37:02.836Z,99561.28
2022-11-03T23:39:29.443Z,99564.13
2022-11-03T23:41:56.387Z,99568.13
2022-11-03T23:44:23.021Z,99572.84
2022-11-03T23:47:07.949Z,99564.03
2022-11-03T23:49:34.391Z,99564.09
2022-11-03T23:52:01.046Z,99565.78
2022-11-03T23:54:27.628Z,99570.41
2022-11-03T23:57:12.859Z,99562.88
2022-11-03T23:59:39.352Z,99567.69
